Bekkevoort, Belgium
Current Conditions -  °F | °C
As of 7:03 PM on Sunday 25 Jan 2015 (Local Time) from EBDT Reporting Station
Broken Clouds Broken Clouds  
Wind Chill: 34°   Ceiling: 5500
Heat Index: 37°   Visibility: 5mi
Dew Point: 36°   Wind: 5mph
Humidity: 93%   Direction: 210°SSW
Pressure: 30.39"   Gusts: NA
Location:  50.94°N, 4.97°E
Report Text: EBDT 251803Z AUTO 21004KT 8000 BKN055/// 03/02 Q1029 BLU
Loading
Personal Weather Stations






























Interactive Weather Map New forecast layout! Learn more

10-Day Weather Forecast

Advertisements
Track Severe Weather on mobile